Time;durP1;ratioP1;P1;durP2;ratioP2;P2;SDS_P1;SDS_P2;PMS_P1;PMS_P2;Temp;Humidity;BMP_temperature;BMP_pressure;BME280_temperature;BME280_humidity;BME280_pressure;Samples;Min_cycle;Max_cycle;Signal;HPM_P1;HPM_P2
2022/05/30 00:01:07;;;;;;;5.95;1.58;;;;;;;8.26;80.41;98553.44;10439452;28;20049;-78
2022/05/30 00:06:12;;;;;;;7.07;1.58;;;;;;;8.26;80.39;98548.22;10440000;28;20051;-76
2022/05/30 00:11:15;;;;;;;6.28;1.25;;;;;;;8.21;80.29;98530.03;10435151;28;20072;-77
2022/05/30 00:16:19;;;;;;;8.25;1.58;;;;;;;8.21;80.40;98532.63;10439792;28;20049;-76
2022/05/30 00:21:24;;;;;;;11.85;1.38;;;;;;;8.20;80.38;98533.50;10446701;28;20053;-77
2022/05/30 00:26:25;;;;;;;12.20;2.60;;;;;;;8.22;80.37;98544.75;10447059;28;20599;-77
2022/05/30 00:31:27;;;;;;;12.25;1.73;;;;;;;8.22;80.35;98544.75;10442265;28;20053;-77
2022/05/30 00:36:29;;;;;;;6.40;1.42;;;;;;;8.23;80.26;98546.50;10443462;28;20033;-77
2022/05/30 00:41:30;;;;;;;11.85;2.08;;;;;;;8.21;80.36;98540.44;10446118;28;20045;-77
2022/05/30 00:46:32;;;;;;;9.45;1.90;;;;;;;8.18;80.60;98529.16;10446764;28;20048;-76
2022/05/30 00:51:37;;;;;;;7.43;1.48;;;;;;;8.17;80.41;98522.22;10444102;28;20095;-77
2022/05/30 00:56:45;;;;;;;13.85;1.80;;;;;;;8.07;80.66;98491.03;10430366;28;20044;-78
2022/05/30 01:01:47;;;;;;;18.85;2.38;;;;;;;7.97;80.49;98445.06;10448107;28;20079;-77
2022/05/30 01:06:51;;;;;;;6.88;1.63;;;;;;;7.88;80.43;98417.38;10446883;28;20033;-77
2022/05/30 01:12:03;;;;;;;10.90;1.58;;;;;;;7.83;80.33;98398.31;10444224;28;20517;-78
2022/05/30 01:17:14;;;;;;;10.52;1.40;;;;;;;7.69;80.16;98337.69;10446552;28;20037;-77
2022/05/30 01:22:46;;;;;;;6.00;1.70;;;;;;;7.66;80.33;98328.16;10445180;28;20121;-78
2022/05/30 01:27:59;;;;;;;5.13;1.10;;;;;;;7.58;80.56;98298.72;10434142;28;20038;-77
2022/05/30 01:33:02;;;;;;;8.43;1.50;;;;;;;7.54;80.36;98281.41;10446468;28;20040;-78
2022/05/30 01:38:05;;;;;;;9.93;1.58;;;;;;;7.55;80.46;98281.41;10448721;28;20128;-77
2022/05/30 01:43:08;;;;;;;11.40;1.58;;;;;;;7.56;80.71;98290.91;10447292;28;20076;-77
2022/05/30 01:48:11;;;;;;;9.88;1.83;;;;;;;7.54;80.47;98281.41;10447534;28;20082;-77
2022/05/30 01:53:13;;;;;;;6.35;1.58;;;;;;;7.49;80.51;98268.47;10445859;28;20175;-77
2022/05/30 01:58:47;;;;;;;7.53;1.75;;;;;;;7.46;80.53;98263.28;10403385;28;20097;-77
2022/05/30 02:04:08;;;;;;;8.43;1.33;;;;;;;7.46;80.67;98258.06;10426934;28;20436;-77
2022/05/30 02:09:10;;;;;;;12.60;1.50;;;;;;;7.49;80.60;98268.47;10444695;28;20076;-78
2022/05/30 02:14:12;;;;;;;6.45;1.08;;;;;;;7.47;80.61;98261.53;10443396;28;20049;-77
2022/05/30 02:19:14;;;;;;;4.60;1.23;;;;;;;7.47;80.68;98270.19;10442152;28;20412;-76
2022/05/30 02:24:17;;;;;;;8.38;1.30;;;;;;;7.38;80.77;98234.69;10442564;28;20855;-78
2022/05/30 02:29:19;;;;;;;10.70;1.55;;;;;;;7.35;80.70;98224.31;10442348;28;20068;-77
2022/05/30 02:39:48;;;;;;;4.05;1.25;;;;;;;7.31;80.98;98217.44;10442299;28;20048;-78
2022/05/30 02:45:08;;;;;;;9.17;2.10;;;;;;;7.25;80.71;98189.72;10433460;28;20057;-77
2022/05/30 02:50:10;;;;;;;9.13;1.40;;;;;;;7.24;80.75;98182.78;10442219;28;20063;-77
2022/05/30 02:55:12;;;;;;;8.98;1.60;;;;;;;7.20;80.86;98162.88;10405387;28;20046;-77
2022/05/30 03:00:26;;;;;;;6.13;1.50;;;;;;;7.17;80.74;98156.84;10402086;28;20048;-77
2022/05/30 03:05:31;;;;;;;7.03;1.42;;;;;;;7.11;80.81;98141.31;10430166;28;20501;-77
2022/05/30 03:10:35;;;;;;;7.47;1.50;;;;;;;7.05;80.86;98118.81;10441029;28;20045;-78
2022/05/30 03:15:37;;;;;;;7.30;1.58;;;;;;;7.10;80.94;98131.78;10433472;28;20144;-78
2022/05/30 03:20:39;;;;;;;3.65;1.30;;;;;;;7.07;80.82;98130.94;10436405;28;20079;-78
2022/05/30 03:25:40;;;;;;;5.45;1.55;;;;;;;7.11;80.92;98142.16;10443681;28;20041;-78
2022/05/30 03:30:44;;;;;;;6.05;1.50;;;;;;;7.18;81.03;98175.06;10442707;28;20537;-77
2022/05/30 03:35:46;;;;;;;7.28;1.17;;;;;;;7.23;81.06;98194.06;10442744;28;20402;-78
2022/05/30 03:41:13;;;;;;;8.18;1.08;;;;;;;7.33;81.18;98233.91;10438848;28;20045;-77
2022/05/30 03:46:35;;;;;;;4.88;1.17;;;;;;;7.32;81.26;98223.50;10430649;28;20064;-78
2022/05/30 03:51:37;;;;;;;7.30;1.95;;;;;;;7.37;81.17;98252.94;10443605;28;20041;-77
2022/05/30 03:56:38;;;;;;;9.48;1.58;;;;;;;7.39;81.30;98256.41;10444826;28;20432;-77
2022/05/30 04:01:41;;;;;;;4.97;1.27;;;;;;;7.44;81.30;98278.03;10443344;28;20033;-78
2022/05/30 04:06:43;;;;;;;4.75;1.70;;;;;;;7.47;81.36;98296.22;10484310;28;20052;-78
2022/05/30 04:11:45;;;;;;;8.05;1.40;;;;;;;7.52;81.28;98323.09;10451194;28;20069;-77
2022/05/30 04:16:46;;;;;;;7.72;1.13;;;;;;;7.61;81.45;98350.78;10452133;28;20059;-78
2022/05/30 04:21:48;;;;;;;11.50;1.52;;;;;;;7.61;81.15;98353.38;10451966;28;20133;-78
2022/05/30 04:26:58;;;;;;;6.63;1.35;;;;;;;7.67;81.57;98376.78;10450492;28;20052;-78
2022/05/30 04:32:01;;;;;;;9.30;1.38;;;;;;;7.67;81.50;98379.38;10449071;28;20041;-78
2022/05/30 04:37:04;;;;;;;7.60;1.58;;;;;;;7.77;81.51;98419.22;10449264;28;20484;-77
2022/05/30 04:42:06;;;;;;;5.45;1.30;;;;;;;7.81;81.54;98431.34;10449818;28;20098;-78
2022/05/30 04:47:39;;;;;;;7.18;1.50;;;;;;;7.90;81.71;98477.31;10442733;28;20045;-78
2022/05/30 04:52:42;;;;;;;6.60;1.75;;;;;;;7.94;81.74;98492.91;10448188;28;20098;-78
2022/05/30 04:58:12;;;;;;;4.15;1.40;;;;;;;8.05;81.79;98544.06;10440052;28;20045;-78
2022/05/30 05:03:23;;;;;;;8.48;1.60;;;;;;;8.14;81.86;98583.09;10450495;28;20102;-77
2022/05/30 05:08:36;;;;;;;6.05;2.03;;;;;;;8.27;81.79;98634.25;10452283;28;20463;-78
2022/05/30 05:13:57;;;;;;;6.80;1.30;;;;;;;8.35;82.02;98661.97;10446321;28;20540;-79
2022/05/30 05:19:19;;;;;;;9.05;1.63;;;;;;;8.40;81.88;98692.38;10422502;28;20164;-80
2022/05/30 05:24:21;;;;;;;8.63;1.50;;;;;;;8.46;82.19;98717.56;10444602;28;20112;-78
2022/05/30 05:29:41;;;;;;;;;;;;;;;8.57;82.00;98760.13;10444564;28;20049;-79
2022/05/30 05:34:43;;;;;;;7.38;1.90;;;;;;;8.61;82.27;98780.06;10446275;28;19928;-78
2022/05/30 05:39:49;;;;;;;7.32;1.90;;;;;;;8.67;82.06;98795.66;10412238;28;20077;-78
2022/05/30 05:44:51;;;;;;;9.35;2.38;;;;;;;8.70;82.28;98813.06;10447248;28;20049;-79
2022/05/30 05:49:53;;;;;;;6.63;1.67;;;;;;;8.77;82.19;98835.63;10447935;28;20044;-79
2022/05/30 05:54:55;;;;;;;5.05;1.80;;;;;;;8.88;82.30;98887.75;10434657;28;20060;-79
2022/05/30 05:59:57;;;;;;;3.75;1.63;;;;;;;8.97;82.33;98929.44;10449825;28;20041;-78
2022/05/30 06:05:00;;;;;;;8.13;1.75;;;;;;;9.05;82.39;98957.25;10449625;28;20040;-79
2022/05/30 06:10:21;;;;;;;4.85;1.70;;;;;;;9.12;82.36;98990.28;10439485;28;20497;-79
2022/05/30 06:15:31;;;;;;;6.68;2.30;;;;;;;9.28;82.29;99059.84;10450943;28;20041;-85
2022/05/30 06:20:48;;;;;;;4.88;1.88;;;;;;;9.59;82.43;99185.06;10446395;28;20113;-80
2022/05/30 06:25:49;;;;;;;5.60;1.85;;;;;;;9.78;82.57;99273.88;10451457;28;20045;-80
2022/05/30 06:31:13;;;;;;;8.55;1.55;;;;;;;10.00;82.57;99353.13;10449733;28;20078;-79
2022/05/30 06:36:18;;;;;;;15.63;1.58;;;;;;;10.34;82.63;99500.38;10427668;28;20110;-79
2022/05/30 06:41:31;;;;;;;4.88;1.10;;;;;;;10.60;82.72;99602.41;10467166;28;20075;-80
2022/05/30 06:46:38;;;;;;;6.10;1.30;;;;;;;10.76;82.66;99671.31;10440040;28;20050;-79
2022/05/30 06:51:58;;;;;;;4.75;1.27;;;;;;;10.79;82.57;99684.41;10442789;28;20048;-80
2022/05/30 07:02:20;;;;;;;;;;;;;;;11.31;82.61;99905.28;10451195;28;20056;-82
2022/05/30 07:07:41;;;;;;;5.10;1.02;;;;;;;11.35;82.85;99917.53;10443707;28;20400;-83
2022/05/30 07:13:03;;;;;;;6.72;1.25;;;;;;;11.54;82.75;99990.91;10451791;28;20517;-82
2022/05/30 07:18:14;;;;;;;4.25;1.00;;;;;;;11.60;82.63;100019.75;10452909;28;20045;-82
2022/05/30 07:23:16;;;;;;;7.45;1.48;;;;;;;11.64;82.59;100032.88;10450673;28;20041;-82
2022/05/30 07:28:37;;;;;;;5.93;1.08;;;;;;;11.81;82.50;100098.47;10443972;28;20273;-82
2022/05/30 07:33:58;;;;;;;4.10;0.70;;;;;;;12.11;82.59;100225.34;10434823;28;20046;-83
2022/05/30 07:39:29;;;;;;;3.63;0.98;;;;;;;12.11;82.59;75990.13;10399471;28;20037;-84
2022/05/30 07:44:49;;;;;;;5.35;1.25;;;;;;;13.41;82.47;100769.66;10441210;28;20049;-81
2022/05/30 07:50:04;;;;;;;4.50;0.80;;;;;;;13.45;82.27;100800.38;10453023;28;20041;-81
2022/05/30 07:55:29;;;;;;;1.48;0.55;;;;;;;13.72;82.26;100896.09;10395793;28;20084;-81
2022/05/30 08:00:35;;;;;;;4.30;0.80;;;;;;;12.76;81.99;100493.34;10392166;28;20055;-78
2022/05/30 08:05:46;;;;;;;2.75;0.70;;;;;;;12.91;81.81;100556.47;10445488;28;20639;-78
2022/05/30 08:11:07;;;;;;;2.53;0.50;;;;;;;-147.53;100.00;57128.34;10434808;28;20045;-78
2022/05/30 08:16:21;;;;;;;3.10;0.63;;;;;;;-147.53;100.00;57128.34;10478288;28;20738;-85
2022/05/30 08:21:44;;;;;;;3.63;0.60;;;;;;;-147.53;100.00;57128.34;10469235;28;20053;-80
2022/05/30 08:26:45;;;;;;;3.95;0.50;;;;;;;-147.53;100.00;57128.34;10440310;28;20060;-79
2022/05/30 08:32:14;;;;;;;2.60;0.57;;;;;;;-147.53;100.00;57128.34;10430510;28;20054;-79
2022/05/30 08:37:37;;;;;;;0.80;0.60;;;;;;;-147.53;100.00;57128.34;10434232;28;20056;-80
2022/05/30 08:42:39;;;;;;;3.53;0.60;;;;;;;-147.53;100.00;57128.34;10456221;28;20040;-81
2022/05/30 08:48:01;;;;;;;2.95;0.77;;;;;;;-147.53;100.00;57128.34;10435733;28;20053;-83
2022/05/30 08:53:17;;;;;;;3.38;0.70;;;;;;;-147.53;100.00;57128.34;10453647;28;20075;-82
2022/05/30 08:58:41;;;;;;;2.67;0.90;;;;;;;-147.53;100.00;57128.34;10418570;28;20444;-78
2022/05/30 09:04:08;;;;;;;1.00;0.63;;;;;;;-147.53;100.00;57128.34;10397636;28;20108;-77
2022/05/30 09:09:22;;;;;;;;;;;;;;;-147.53;100.00;57128.34;10429965;28;20052;-78
2022/05/30 09:14:46;;;;;;;1.65;0.93;;;;;;;-147.53;100.00;57128.34;10427561;28;19929;-80
2022/05/30 09:19:48;;;;;;;5.55;0.70;;;;;;;-147.53;100.00;57128.34;10390704;28;20825;-78
2022/05/30 09:30:16;;;;;;;2.42;0.50;;;;;;;-147.53;100.00;57128.34;10424943;28;20045;-78
2022/05/30 09:35:36;;;;;;;2.83;0.60;;;;;;;-147.53;100.00;57128.34;10388914;28;20049;-79
2022/05/30 09:41:11;;;;;;;;;;;;;;;-147.53;100.00;57128.34;10401219;28;20133;-79
2022/05/30 09:46:30;;;;;;;3.67;0.80;;;;;;;-147.53;100.00;57128.34;10410007;28;19982;-78
2022/05/30 09:51:53;;;;;;;1.55;0.50;;;;;;;-147.53;100.00;57128.34;10446700;28;20697;-79
2022/05/30 09:57:03;;;;;;;2.15;0.60;;;;;;;-147.53;100.00;57128.34;10446290;28;20051;-78
2022/05/30 10:02:32;;;;;;;3.33;0.80;;;;;;;-147.53;100.00;57128.34;10441662;28;20725;-79
2022/05/30 10:07:48;;;;;;;6.95;1.25;;;;;;;-147.53;100.00;57128.34;10434549;28;20141;-79
2022/05/30 10:13:11;;;;;;;2.33;0.52;;;;;;;-147.53;100.00;57128.34;10446444;28;20044;-78
2022/05/30 10:18:55;;;;;;;1.60;0.50;;;;;;;-147.53;100.00;57128.34;10442916;28;20037;-79
2022/05/30 10:30:00;;;;;;;2.72;0.68;;;;;;;-147.53;100.00;57128.34;10438558;28;20580;-78
2022/05/30 10:35:42;;;;;;;1.95;0.60;;;;;;;-147.53;100.00;57128.34;10381090;28;20501;-78
2022/05/30 10:40:56;;;;;;;2.67;0.70;;;;;;;-147.53;100.00;57128.34;10406490;28;20040;-78
2022/05/30 10:46:06;;;;;;;1.33;0.50;;;;;;;-147.53;100.00;57128.34;10445694;28;20040;-79
2022/05/30 10:51:18;;;;;;;4.25;0.80;;;;;;;-147.53;100.00;57128.34;10445228;28;20045;-78
2022/05/30 10:56:42;;;;;;;4.32;0.73;;;;;;;-147.53;100.00;57128.34;10426742;28;20149;-77
2022/05/30 11:01:49;;;;;;;1.77;0.50;;;;;;;-147.53;100.00;57128.34;10441855;28;20419;-77
2022/05/30 11:06:57;;;;;;;3.75;0.70;;;;;;;-147.53;100.00;57128.34;10432771;28;20060;-79
2022/05/30 11:12:13;;;;;;;2.67;0.70;;;;;;;-147.53;100.00;57128.34;10440130;28;20899;-77
2022/05/30 11:17:28;;;;;;;2.88;1.10;;;;;;;-147.53;100.00;57128.34;10442481;28;20075;-77
2022/05/30 11:23:06;;;;;;;3.08;0.90;;;;;;;-147.53;100.00;57128.34;10440348;28;20052;-78
2022/05/30 11:28:17;;;;;;;1.55;0.60;;;;;;;-147.53;100.00;57128.34;10429145;28;20133;-76
2022/05/30 11:33:48;;;;;;;5.40;0.80;;;;;;;-147.53;100.00;57128.34;10430712;28;20051;-78
2022/05/30 11:38:57;;;;;;;3.08;0.70;;;;;;;-147.53;100.00;57128.34;10427112;28;20049;-77
2022/05/30 11:44:37;;;;;;;2.78;0.90;;;;;;;-147.53;100.00;57128.34;10441346;28;20072;-78
2022/05/30 11:49:51;;;;;;;4.20;0.98;;;;;;;-147.53;100.00;57128.34;10432158;28;20172;-78
2022/05/30 11:55:14;;;;;;;2.03;0.80;;;;;;;-147.53;100.00;57128.34;10404465;28;20105;-78
2022/05/30 12:00:33;;;;;;;2.92;0.65;;;;;;;-147.53;100.00;57128.34;10393349;28;20049;-78
2022/05/30 12:05:50;;;;;;;3.63;0.70;;;;;;;-147.53;100.00;57128.34;10400129;28;20632;-78
2022/05/30 12:10:52;;;;;;;1.45;0.45;;;;;;;-147.53;100.00;57128.34;10428710;28;20404;-82
2022/05/30 12:16:08;;;;;;;1.85;0.45;;;;;;;-147.53;100.00;57128.34;10407791;28;20053;-79
2022/05/30 12:26:52;;;;;;;1.27;0.60;;;;;;;-147.53;100.00;57128.34;10420093;28;20041;-78
2022/05/30 12:32:16;;;;;;;2.65;0.75;;;;;;;-147.53;100.00;57128.34;10423463;28;20061;-78
2022/05/30 12:37:44;;;;;;;4.05;0.80;;;;;;;-147.53;100.00;57128.34;10427328;28;20045;-76
2022/05/30 12:42:56;;;;;;;2.28;0.60;;;;;;;-147.53;100.00;57128.34;10438333;28;20045;-76
2022/05/30 12:47:57;;;;;;;1.92;0.73;;;;;;;-147.53;100.00;57128.34;10417230;28;20049;-76
2022/05/30 12:53:02;;;;;;;1.98;0.55;;;;;;;-147.53;100.00;57128.34;10447892;28;20123;-80
2022/05/30 12:58:03;;;;;;;2.50;0.60;;;;;;;-147.53;100.00;57128.34;10412750;28;20061;-78
2022/05/30 13:03:32;;;;;;;0.50;0.50;;;;;;;-147.53;100.00;57128.34;10424642;28;20212;-78
2022/05/30 13:08:58;;;;;;;1.95;0.63;;;;;;;-147.53;100.00;57128.34;10393220;28;20167;-76
2022/05/30 13:14:32;;;;;;;5.47;0.70;;;;;;;-147.53;100.00;57128.34;10414577;28;20079;-85
2022/05/30 13:19:42;;;;;;;0.85;0.40;;;;;;;-147.53;100.00;57128.34;10418388;28;20448;-82
2022/05/30 13:24:43;;;;;;;0.60;0.60;;;;;;;-147.53;100.00;57128.34;10437118;28;20455;-79
2022/05/30 13:29:45;;;;;;;2.33;0.50;;;;;;;-147.53;100.00;57128.34;10411480;28;20068;-79
2022/05/30 13:34:53;;;;;;;2.47;0.60;;;;;;;-147.53;100.00;57128.34;10421348;28;20053;-76
2022/05/30 13:39:59;;;;;;;10.23;3.00;;;;;;;-147.53;100.00;57128.34;10432076;28;20604;-76
2022/05/30 13:45:08;;;;;;;2.38;0.75;;;;;;;-147.53;100.00;57128.34;10380354;28;20049;-78
2022/05/30 13:50:10;;;;;;;9.10;1.55;;;;;;;-147.53;100.00;57128.34;10409174;28;20053;-79
2022/05/30 13:55:22;;;;;;;1.13;0.50;;;;;;;-147.53;100.00;57128.34;10396331;28;20072;-80
2022/05/30 14:00:35;;;;;;;2.38;0.60;;;;;;;-147.53;100.00;57128.34;10389751;28;20120;-82
2022/05/30 14:05:39;;;;;;;0.55;0.55;;;;;;;-147.53;100.00;57128.34;10438702;28;20052;-80
2022/05/30 14:10:44;;;;;;;3.75;0.80;;;;;;;-147.53;100.00;57128.34;10441376;28;20196;-79
2022/05/30 14:15:54;;;;;;;54.17;5.50;;;;;;;-147.53;100.00;57128.34;10431190;28;20048;-80
2022/05/30 14:20:57;;;;;;;2.25;1.13;;;;;;;-147.53;100.00;57128.34;10419264;28;20061;-82
2022/05/30 14:25:58;;;;;;;1.83;0.73;;;;;;;-147.53;100.00;57128.34;10414081;28;20460;-86
2022/05/30 14:31:13;;;;;;;2.33;0.73;;;;;;;-147.53;100.00;57128.34;10409071;28;20047;-78
2022/05/30 14:36:51;;;;;;;0.77;0.60;;;;;;;-147.53;100.00;57128.34;10414080;28;20183;-76
2022/05/30 14:42:04;;;;;;;173.95;19.77;;;;;;;-147.53;100.00;57128.34;10410687;28;20103;-78
2022/05/30 14:47:10;;;;;;;440.90;54.92;;;;;;;-147.53;100.00;57128.34;10415250;28;20041;-78
2022/05/30 14:52:16;;;;;;;1861.97;331.95;;;;;;;-147.53;100.00;57128.34;10420474;28;20051;-77
2022/05/30 14:57:25;;;;;;;13.75;1.92;;;;;;;-147.53;100.00;57128.34;10414106;28;20127;-78
2022/05/30 15:07:47;;;;;;;16.85;1.70;;;;;;;-147.53;100.00;57128.34;10442743;28;20087;-79
2022/05/30 15:12:48;;;;;;;23.27;1.98;;;;;;;-147.53;100.00;57128.34;10439959;28;20037;-78
2022/05/30 15:17:54;;;;;;;8.18;2.13;;;;;;;-147.53;100.00;57128.34;10433950;28;20059;-76
2022/05/30 15:22:58;;;;;;;3.65;1.20;;;;;;;-147.53;100.00;57128.34;10437501;28;20051;-74
2022/05/30 15:28:00;;;;;;;2.33;1.00;;;;;;;-147.53;100.00;57128.34;10429487;28;20048;-75
2022/05/30 15:33:02;;;;;;;1.70;0.70;;;;;;;-147.53;100.00;57128.34;10432545;28;20039;-75
2022/05/30 15:38:03;;;;;;;5.18;1.13;;;;;;;-147.53;100.00;57128.34;10434535;28;20049;-74
2022/05/30 15:43:05;;;;;;;2.72;1.05;;;;;;;-147.53;100.00;57128.34;10437830;28;20049;-75
2022/05/30 15:48:07;;;;;;;3.15;1.02;;;;;;;-147.53;100.00;57128.34;10442007;28;20044;-80
2022/05/30 15:58:52;;;;;;;5.18;1.33;;;;;;;-147.53;100.00;57128.34;10426333;28;20417;-75
2022/05/30 16:03:57;;;;;;;6.43;0.80;;;;;;;-147.53;100.00;57128.34;10438039;28;20072;-78
2022/05/30 16:09:00;;;;;;;1.02;0.45;;;;;;;-147.53;100.00;57128.34;10438251;28;20033;-77
2022/05/30 16:14:02;;;;;;;0.90;0.70;;;;;;;-147.53;100.00;57128.34;10443567;28;20041;-77
2022/05/30 16:19:04;;;;;;;2.45;1.13;;;;;;;-147.53;100.00;57128.34;10445173;28;20486;-77
2022/05/30 16:24:07;;;;;;;1.85;0.90;;;;;;;-147.53;100.00;57128.34;10447193;28;20053;-77
2022/05/30 16:29:15;;;;;;;1.33;0.70;;;;;;;-147.53;100.00;57128.34;10439327;28;20529;-88
2022/05/30 16:34:17;;;;;;;5.10;0.63;;;;;;;-147.53;100.00;57128.34;10439710;28;20128;-79
2022/05/30 16:39:18;;;;;;;2.70;0.70;;;;;;;-147.53;100.00;57128.34;10447908;28;20512;-78
2022/05/30 16:44:22;;;;;;;2.08;0.73;;;;;;;-147.53;100.00;57128.34;10447863;28;20045;-78
2022/05/30 16:49:27;;;;;;;2.58;0.80;;;;;;;-147.53;100.00;57128.34;10416169;28;20049;-75
2022/05/30 16:54:29;;;;;;;2.08;0.63;;;;;;;-147.53;100.00;57128.34;10412631;28;20492;-77
2022/05/30 16:59:30;;;;;;;1.65;0.75;;;;;;;-147.53;100.00;57128.34;10414631;28;20120;-77
2022/05/30 17:04:33;;;;;;;2.28;0.70;;;;;;;-147.53;100.00;57128.34;10404559;28;20160;-75
2022/05/30 17:09:35;;;;;;;2.45;0.70;;;;;;;-147.53;100.00;57128.34;10431493;28;20156;-76
2022/05/30 17:14:36;;;;;;;1.85;0.80;;;;;;;-147.53;100.00;57128.34;10424901;28;20056;-75
2022/05/30 17:19:39;;;;;;;4.15;1.33;;;;;;;-147.53;100.00;57128.34;10400259;28;20033;-76
2022/05/30 17:24:40;;;;;;;4.05;1.10;;;;;;;-147.53;100.00;57128.34;10418179;28;20041;-76
2022/05/30 17:29:43;;;;;;;4.60;0.90;;;;;;;-147.53;100.00;57128.34;10433071;28;20053;-74
2022/05/30 17:34:44;;;;;;;3.63;1.13;;;;;;;-147.53;100.00;57128.34;10406990;28;20039;-76
2022/05/30 17:39:46;;;;;;;2.75;1.10;;;;;;;-147.53;100.00;57128.34;10397279;28;20029;-78
2022/05/30 17:44:48;;;;;;;2.22;1.00;;;;;;;-147.53;100.00;57128.34;10399210;28;20041;-75
2022/05/30 17:50:00;;;;;;;3.45;1.05;;;;;;;-147.53;100.00;57128.34;10401326;28;20045;-75
2022/05/30 17:55:04;;;;;;;1.90;0.90;;;;;;;-147.53;100.00;57128.34;10416552;28;20382;-76
2022/05/30 18:00:10;;;;;;;3.42;0.63;;;;;;;-147.53;100.00;57128.34;10395803;28;20107;-75
2022/05/30 18:05:16;;;;;;;4.25;0.85;;;;;;;-147.53;100.00;57128.34;10400632;28;20493;-76
2022/05/30 18:10:43;;;;;;;1.63;0.80;;;;;;;-147.53;100.00;57128.34;10397317;28;20088;-76
2022/05/30 18:15:45;;;;;;;1.90;0.90;;;;;;;-147.53;100.00;57128.34;10412181;28;20156;-77
2022/05/30 18:20:47;;;;;;;1.60;0.88;;;;;;;-147.53;100.00;57128.34;10422997;28;20075;-76
2022/05/30 18:25:49;;;;;;;1.90;0.98;;;;;;;-147.53;100.00;57128.34;10428459;28;20051;-75
2022/05/30 18:31:10;;;;;;;2.25;0.98;;;;;;;-147.53;100.00;57128.34;10427621;28;20053;-75
2022/05/30 18:36:40;;;;;;;1.45;0.63;;;;;;;-147.53;100.00;57128.34;10427221;28;20091;-75
2022/05/30 18:42:00;;;;;;;6.57;1.85;;;;;;;-147.53;100.00;57128.34;10432547;28;20136;-76
2022/05/30 18:47:13;;;;;;;1.43;0.63;;;;;;;-147.53;100.00;57128.34;10430920;28;20045;-77
2022/05/30 18:52:15;;;;;;;3.28;1.00;;;;;;;-147.53;100.00;57128.34;10429924;28;21128;-75
2022/05/30 18:57:33;;;;;;;3.90;1.00;;;;;;;-147.53;100.00;57128.34;10438677;28;20800;-76
2022/05/30 19:02:36;;;;;;;3.08;0.98;;;;;;;-147.53;100.00;57128.34;10425633;28;20136;-74
2022/05/30 19:07:39;;;;;;;2.28;1.20;;;;;;;-147.53;100.00;57128.34;10436672;28;20049;-76
2022/05/30 19:12:47;;;;;;;1.58;0.90;;;;;;;-147.53;100.00;57128.34;10403966;28;20646;-76
2022/05/30 19:17:54;;;;;;;3.25;1.13;;;;;;;-147.53;100.00;57128.34;10402639;28;20124;-76
2022/05/30 19:22:57;;;;;;;4.18;0.90;;;;;;;-147.53;100.00;57128.34;10405838;28;20046;-75
2022/05/30 19:28:08;;;;;;;4.00;1.05;;;;;;;-147.53;100.00;57128.34;10408276;28;20061;-76
2022/05/30 19:33:10;;;;;;;3.70;0.93;;;;;;;-147.53;100.00;57128.34;10408105;28;20049;-77
2022/05/30 19:38:15;;;;;;;1.50;0.90;;;;;;;-147.53;100.00;57128.34;10408813;28;20049;-76
2022/05/30 19:43:18;;;;;;;3.50;1.20;;;;;;;-147.53;100.00;57128.34;10403998;28;20045;-76
2022/05/30 19:48:20;;;;;;;3.53;1.35;;;;;;;-147.53;100.00;57128.34;10411338;28;20057;-74
2022/05/30 19:53:21;;;;;;;4.78;1.40;;;;;;;-147.53;100.00;57128.34;10410386;28;20044;-75
2022/05/30 19:58:23;;;;;;;2.17;1.20;;;;;;;-147.53;100.00;57128.34;10416308;28;20488;-75
2022/05/30 20:03:25;;;;;;;7.35;2.13;;;;;;;-147.53;100.00;57128.34;10432903;28;20049;-75
2022/05/30 20:08:27;;;;;;;4.65;1.50;;;;;;;-147.53;100.00;57128.34;10438631;28;20048;-75
2022/05/30 20:13:30;;;;;;;5.10;2.20;;;;;;;-147.53;100.00;57128.34;10418847;28;20124;-76
2022/05/30 20:18:52;;;;;;;6.45;2.75;;;;;;;-147.53;100.00;57128.34;10403783;28;20045;-73
2022/05/30 20:23:53;;;;;;;9.50;2.65;;;;;;;-147.53;100.00;57128.34;10402171;28;20045;-74
2022/05/30 20:28:55;;;;;;;6.05;2.33;;;;;;;-147.53;100.00;57128.34;10405346;28;20041;-74
2022/05/30 20:33:56;;;;;;;6.45;2.35;;;;;;;-147.53;100.00;57128.34;10434887;28;20048;-73
2022/05/30 20:39:05;;;;;;;6.35;2.50;;;;;;;-147.53;100.00;57128.34;10443417;28;20048;-74
2022/05/30 20:44:07;;;;;;;7.90;3.03;;;;;;;-147.53;100.00;57128.34;10444177;28;20041;-76
2022/05/30 20:49:09;;;;;;;8.05;3.53;;;;;;;-147.53;100.00;57128.34;10445002;28;20055;-75
2022/05/30 20:54:11;;;;;;;5.10;2.13;;;;;;;-147.53;100.00;57128.34;10442762;28;20070;-75
2022/05/30 20:59:13;;;;;;;4.80;2.13;;;;;;;-147.53;100.00;57128.34;10437943;28;20057;-75
2022/05/30 21:04:16;;;;;;;7.28;2.05;;;;;;;-147.53;100.00;57128.34;10444084;28;20488;-73
2022/05/30 21:09:17;;;;;;;6.40;2.72;;;;;;;-147.53;100.00;57128.34;10443017;28;20056;-73
2022/05/30 21:14:20;;;;;;;4.25;2.30;;;;;;;-147.53;100.00;57128.34;10443697;28;20475;-74
2022/05/30 21:19:33;;;;;;;4.28;2.03;;;;;;;-147.53;100.00;57128.34;10442608;28;20148;-74
2022/05/30 21:24:35;;;;;;;5.65;1.92;;;;;;;-147.53;100.00;57128.34;10433320;28;20124;-74
2022/05/30 21:29:37;;;;;;;7.88;2.53;;;;;;;-147.53;100.00;57128.34;10428367;28;21014;-75
2022/05/30 21:34:39;;;;;;;5.22;2.15;;;;;;;-147.53;100.00;57128.34;10441865;28;20055;-74
2022/05/30 21:39:41;;;;;;;4.65;2.45;;;;;;;-147.53;100.00;57128.34;10443648;28;20143;-75
2022/05/30 21:44:42;;;;;;;6.13;2.30;;;;;;;-147.53;100.00;57128.34;10436354;28;20564;-75
2022/05/30 21:49:44;;;;;;;8.57;3.13;;;;;;;-147.53;100.00;57128.34;10441072;28;20036;-76
2022/05/30 21:54:46;;;;;;;8.10;3.33;;;;;;;-147.53;100.00;57128.34;10442294;28;20059;-76
2022/05/30 21:59:47;;;;;;;9.80;3.13;;;;;;;-147.53;100.00;57128.34;10441128;28;20135;-75
2022/05/30 22:04:49;;;;;;;9.35;3.03;;;;;;;-147.53;100.00;57128.34;10422415;28;20063;-76
2022/05/30 22:09:50;;;;;;;6.47;2.47;;;;;;;-147.53;100.00;57128.34;10401292;28;20050;-76
2022/05/30 22:14:52;;;;;;;6.65;2.30;;;;;;;-147.53;100.00;57128.34;10401116;28;20144;-77
2022/05/30 22:19:53;;;;;;;8.95;3.08;;;;;;;-147.53;100.00;57128.34;10430735;28;20068;-76
2022/05/30 22:24:55;;;;;;;7.43;2.53;;;;;;;-147.53;100.00;57128.34;10441239;28;20048;-75
2022/05/30 22:29:57;;;;;;;5.50;2.42;;;;;;;-147.53;100.00;57128.34;10441297;28;20124;-75
2022/05/30 22:34:58;;;;;;;5.55;2.50;;;;;;;-147.53;100.00;57128.34;10441422;28;20055;-75
2022/05/30 22:40:01;;;;;;;5.47;2.30;;;;;;;-147.53;100.00;57128.34;10421180;28;20041;-75
2022/05/30 22:45:03;;;;;;;7.22;2.45;;;;;;;-147.53;100.00;57128.34;10427824;28;20049;-76
2022/05/30 22:50:07;;;;;;;5.50;2.55;;;;;;;-147.53;100.00;57128.34;10440417;28;20041;-76
2022/05/30 22:55:12;;;;;;;3.97;1.75;;;;;;;-147.53;100.00;57128.34;10440319;28;20048;-76
2022/05/30 23:00:21;;;;;;;5.18;2.50;;;;;;;-147.53;100.00;57128.34;10432996;28;20436;-76
2022/05/30 23:05:24;;;;;;;4.18;1.95;;;;;;;-147.53;100.00;57128.34;10433807;28;20481;-74
2022/05/30 23:10:31;;;;;;;3.92;2.08;;;;;;;-147.53;100.00;57128.34;10426861;28;20051;-76
2022/05/30 23:15:33;;;;;;;4.97;2.22;;;;;;;-147.53;100.00;57128.34;10440209;28;20056;-75
2022/05/30 23:20:42;;;;;;;3.65;1.92;;;;;;;-147.53;100.00;57128.34;10427566;28;20068;-75
2022/05/30 23:25:44;;;;;;;5.13;2.13;;;;;;;-147.53;100.00;57128.34;10398869;28;20045;-76
2022/05/30 23:30:47;;;;;;;4.30;2.30;;;;;;;-147.53;100.00;57128.34;10397848;28;20051;-76
2022/05/30 23:35:49;;;;;;;3.88;2.05;;;;;;;-147.53;100.00;57128.34;10437383;28;20485;-75
2022/05/30 23:44:34;;;;;;;4.70;2.08;;;;;;;-147.53;100.00;57128.34;10432964;28;20490;-75
2022/05/30 23:46:12;;;;;;;4.15;1.90;;;;;;;-147.53;100.00;57128.34;10438626;28;20663;-76
2022/05/30 23:51:14;;;;;;;6.18;1.80;;;;;;;-147.53;100.00;57128.34;10432192;28;20079;-76
2022/05/30 23:56:16;;;;;;;4.80;1.98;;;;;;;-147.53;100.00;57128.34;10438258;28;20053;-75
